Time;durP1;ratioP1;P1;durP2;ratioP2;P2;SDS_P1;SDS_P2;PMS_P1;PMS_P2;Temp;Humidity;BMP_temperature;BMP_pressure;BME280_temperature;BME280_humidity;BME280_pressure;Samples;Min_cycle;Max_cycle;Signal;HPM_P1;HPM_P2
2022/10/19 00:01:18;;;;;;;85.78;16.48;;;16.20;99.90;;;;;;5033488;28;20025;-68
2022/10/19 00:03:47;;;;;;;72.22;15.68;;;16.20;99.90;;;;;;5033024;28;20029;-67
2022/10/19 00:06:30;;;;;;;89.82;15.65;;;16.30;99.90;;;;;;5017607;28;20028;-68
2022/10/19 00:09:04;;;;;;;58.17;15.50;;;16.20;99.90;;;;;;5037407;28;20033;-68
2022/10/19 00:11:31;;;;;;;31.30;16.45;;;16.20;99.90;;;;;;5037355;28;20132;-68
2022/10/19 00:13:58;;;;;;;28.25;15.90;;;16.10;99.90;;;;;;5019269;28;20053;-68
2022/10/19 00:16:26;;;;;;;29.13;15.52;;;16.10;99.90;;;;;;5019473;28;20056;-67
2022/10/19 00:18:56;;;;;;;77.93;14.80;;;16.10;99.90;;;;;;5036811;28;20033;-66
2022/10/19 00:21:21;;;;;;;51.70;15.27;;;16.10;99.90;;;;;;5019651;28;20022;-68
2022/10/19 00:23:48;;;;;;;58.67;16.33;;;16.10;99.90;;;;;;5016485;28;20036;-67
2022/10/19 00:26:13;;;;;;;36.55;14.98;;;16.00;99.90;;;;;;5015630;28;20486;-68
2022/10/19 00:28:40;;;;;;;49.60;13.97;;;16.00;99.90;;;;;;5025109;28;20035;-68
2022/10/19 00:31:10;;;;;;;46.67;14.75;;;16.10;99.90;;;;;;5028937;28;20315;-68
2022/10/19 00:33:36;;;;;;;24.80;14.20;;;16.10;99.90;;;;;;5017306;28;20018;-68
2022/10/19 00:36:02;;;;;;;26.50;14.48;;;16.00;99.90;;;;;;5016793;28;20108;-68
2022/10/19 00:38:28;;;;;;;20.42;13.20;;;16.00;99.90;;;;;;5016481;28;20034;-69
2022/10/19 00:40:54;;;;;;;35.67;14.97;;;16.00;99.90;;;;;;5016778;28;20025;-69
2022/10/19 00:43:23;;;;;;;33.47;13.67;;;16.20;99.90;;;;;;5017020;28;20261;-68
2022/10/19 00:45:49;;;;;;;34.10;13.35;;;16.20;99.90;;;;;;5016733;28;20033;-68
2022/10/19 00:48:21;;;;;;;22.38;14.20;;;16.10;99.90;;;;;;4998872;28;20026;-68
2022/10/19 00:50:50;;;;;;;22.20;13.57;;;16.10;99.90;;;;;;5016350;28;20026;-68
2022/10/19 00:53:16;;;;;;;22.00;13.90;;;16.10;99.90;;;;;;5016550;28;20072;-68
2022/10/19 00:55:42;;;;;;;22.45;14.38;;;16.10;99.90;;;;;;4998571;28;20413;-67
2022/10/19 00:58:08;;;;;;;21.27;13.43;;;16.00;99.90;;;;;;5018798;28;20022;-68
2022/10/19 01:00:34;;;;;;;;;;;16.10;99.90;;;;;;5036520;28;20116;-68
2022/10/19 01:03:00;;;;;;;28.15;13.75;;;16.10;99.90;;;;;;5036045;28;19991;-68
2022/10/19 01:05:26;;;;;;;;;;;16.10;99.90;;;;;;5018447;28;20032;-68
2022/10/19 01:07:52;;;;;;;34.05;14.02;;;16.10;99.90;;;;;;5036158;28;19905;-68
2022/10/19 01:10:23;;;;;;;33.30;15.73;;;16.20;99.90;;;;;;5035836;28;20060;-67
2022/10/19 01:13:15;;;;;;;25.27;14.45;;;16.20;99.90;;;;;;5035912;28;20100;-67
2022/10/19 01:15:52;;;;;;;23.13;15.15;;;16.10;99.90;;;;;;5036236;28;20033;-67
2022/10/19 01:18:31;;;;;;;22.98;15.93;;;16.00;99.90;;;;;;5034936;28;20060;-67
2022/10/19 01:21:22;;;;;;;30.65;16.13;;;16.00;99.90;;;;;;5035851;28;20103;-67
2022/10/19 01:24:20;;;;;;;25.42;16.52;;;16.00;99.90;;;;;;5035879;28;20022;-67
2022/10/19 01:26:53;;;;;;;24.63;16.55;;;16.10;99.90;;;;;;5018323;28;20060;-67
2022/10/19 01:29:53;;;;;;;38.92;16.52;;;16.10;99.90;;;;;;5035825;28;20022;-67
2022/10/19 01:32:27;;;;;;;28.98;16.23;;;16.00;99.90;;;;;;5036019;28;20026;-67
2022/10/19 01:35:12;;;;;;;27.65;16.52;;;16.00;99.90;;;;;;5035717;28;20025;-68
2022/10/19 01:38:15;;;;;;;28.38;17.08;;;15.90;99.90;;;;;;5035879;28;20034;-67
2022/10/19 01:40:56;;;;;;;47.03;16.63;;;15.90;99.90;;;;;;5035693;28;20033;-67
2022/10/19 01:43:51;;;;;;;42.47;15.30;;;15.90;99.90;;;;;;5017627;28;20025;-67
2022/10/19 01:46:38;;;;;;;61.03;16.95;;;16.00;99.90;;;;;;5035475;28;20467;-67
2022/10/19 01:49:20;;;;;;;75.22;16.80;;;15.90;99.90;;;;;;5034816;28;20061;-67
2022/10/19 01:51:50;;;;;;;63.40;17.10;;;15.90;99.90;;;;;;5035261;28;20025;-67
2022/10/19 01:54:17;;;;;;;37.40;15.65;;;15.90;99.90;;;;;;5035063;28;20558;-67
2022/10/19 01:56:47;;;;;;;22.45;15.35;;;15.90;99.90;;;;;;5034839;28;20033;-67
2022/10/19 01:59:14;;;;;;;29.20;15.98;;;15.80;99.90;;;;;;5034786;28;20018;-67
2022/10/19 02:01:43;;;;;;;44.47;16.35;;;15.80;99.90;;;;;;5034882;28;20052;-67
2022/10/19 02:04:15;;;;;;;25.63;16.33;;;15.80;99.90;;;;;;5034575;28;20045;-67
2022/10/19 02:06:41;;;;;;;47.58;16.42;;;15.80;99.90;;;;;;5035081;28;20486;-68
2022/10/19 02:09:07;;;;;;;31.27;15.18;;;15.80;99.90;;;;;;5034715;28;20037;-68
2022/10/19 02:11:34;;;;;;;23.23;15.70;;;15.80;99.90;;;;;;5034727;28;20164;-68
2022/10/19 02:14:04;;;;;;;50.78;15.05;;;15.80;99.90;;;;;;5034542;28;20022;-67
2022/10/19 02:16:33;;;;;;;33.78;16.52;;;15.80;99.90;;;;;;5034765;28;20053;-68
2022/10/19 02:19:00;;;;;;;24.90;15.38;;;15.70;99.90;;;;;;5033954;28;20391;-68
2022/10/19 02:21:27;;;;;;;41.08;17.20;;;15.70;99.90;;;;;;5034561;28;20433;-68
2022/10/19 02:23:53;;;;;;;25.73;14.95;;;15.70;99.90;;;;;;5033039;28;20021;-67
2022/10/19 02:26:19;;;;;;;28.35;16.90;;;15.70;99.90;;;;;;5034962;28;20084;-68
2022/10/19 02:28:46;;;;;;;30.38;16.73;;;15.60;99.90;;;;;;5032705;28;20451;-68
2022/10/19 02:31:11;;;;;;;;;;;15.60;99.90;;;;;;5034699;28;20041;-68
2022/10/19 02:33:37;;;;;;;;;;;15.60;99.90;;;;;;5023176;28;20346;-67
2022/10/19 02:36:03;;;;;;;;;;;15.60;99.90;;;;;;5014805;28;19909;-68
2022/10/19 02:38:28;;;;;;;;;;;15.60;99.90;;;;;;5030586;28;19931;-67
2022/10/19 02:41:00;;;;;;;;;;;15.60;99.90;;;;;;5014972;28;20235;-68
2022/10/19 02:43:27;;;;;;;;;;;15.70;99.90;;;;;;5014239;28;19912;-67
2022/10/19 02:46:04;;;;;;;;;;;15.70;99.90;;;;;;5014774;28;20340;-68
2022/10/19 02:48:32;;;;;;;;;;;15.60;99.90;;;;;;5015114;28;19909;-67
2022/10/19 02:50:57;;;;;;;;;;;15.70;99.90;;;;;;5014507;28;19999;-67
2022/10/19 02:53:23;;;;;;;;;;;15.60;99.90;;;;;;5014644;28;19956;-67
2022/10/19 02:55:48;;;;;;;;;;;15.60;99.90;;;;;;5013294;28;20247;-67
2022/10/19 02:58:14;;;;;;;;;;;15.70;99.90;;;;;;5019438;28;19920;-67
2022/10/19 03:00:39;;;;;;;;;;;15.70;99.90;;;;;;5034168;28;19909;-68
2022/10/19 03:03:05;;;;;;;;;;;15.60;99.90;;;;;;5034164;28;19905;-67
2022/10/19 03:05:30;;;;;;;;;;;15.60;99.90;;;;;;5033975;28;19944;-67
2022/10/19 03:07:56;;;;;;;;;;;15.60;99.90;;;;;;5016380;28;20290;-67
2022/10/19 03:10:21;;;;;;;;;;;15.60;99.90;;;;;;5016219;28;19905;-67
2022/10/19 03:12:46;;;;;;;;;;;15.70;99.90;;;;;;5033966;28;19948;-67
2022/10/19 03:15:16;;;;;;;;;;;15.60;99.90;;;;;;5016238;28;19905;-68
2022/10/19 03:17:41;;;;;;;;;;;15.60;99.90;;;;;;5033411;28;19913;-67
2022/10/19 03:20:07;;;;;;;;;;;15.60;99.90;;;;;;5033700;28;19920;-68
2022/10/19 03:22:32;;;;;;;;;;;15.60;99.90;;;;;;5034133;28;19911;-68
2022/10/19 03:24:58;;;;;;;;;;;15.60;99.90;;;;;;5016338;28;20004;-68
2022/10/19 03:27:23;;;;;;;;;;;15.60;99.90;;;;;;5033980;28;19916;-67
2022/10/19 03:29:49;;;;;;;;;;;15.60;99.90;;;;;;5034093;28;19905;-68
2022/10/19 03:32:14;;;;;;;;;;;15.60;99.90;;;;;;5034236;28;19912;-68
2022/10/19 03:34:39;;;;;;;;;;;15.60;99.90;;;;;;5033402;28;20334;-68
2022/10/19 03:37:05;;;;;;;;;;;15.60;99.90;;;;;;5033574;28;20389;-68
2022/10/19 03:39:30;;;;;;;;;;;15.60;99.90;;;;;;5033584;28;19905;-68
2022/10/19 03:41:56;;;;;;;;;;;15.60;99.90;;;;;;5033445;28;19931;-69
2022/10/19 03:44:21;;;;;;;;;;;15.60;99.90;;;;;;5034780;28;20008;-68
2022/10/19 03:46:47;;;;;;;;;;;15.50;99.90;;;;;;5033666;28;19998;-68
2022/10/19 03:49:12;;;;;;;;;;;15.60;99.90;;;;;;5033255;28;19916;-68
2022/10/19 03:51:38;;;;;;;;;;;15.60;99.90;;;;;;5034284;28;20340;-68
2022/10/19 03:54:05;;;;;;;;;;;15.40;99.90;;;;;;5034017;28;19912;-68
2022/10/19 03:56:30;;;;;;;;;;;15.40;99.90;;;;;;5033978;28;20071;-68
2022/10/19 03:58:57;;;;;;;;;;;15.40;99.90;;;;;;5033448;28;20422;-68
2022/10/19 04:01:24;;;;;;;;;;;15.40;99.90;;;;;;5033494;28;19952;-68
2022/10/19 04:03:56;;;;;;;;;;;15.40;99.90;;;;;;5034182;28;20334;-68
2022/10/19 04:06:23;;;;;;;;;;;15.40;99.90;;;;;;5015769;28;19905;-68
2022/10/19 04:08:49;;;;;;;;;;;15.40;99.90;;;;;;5033842;28;19954;-68
2022/10/19 04:11:15;;;;;;;;;;;15.30;99.90;;;;;;5033386;28;19909;-68
2022/10/19 04:13:41;;;;;;;;;;;15.30;99.90;;;;;;5033331;28;20007;-68
2022/10/19 04:16:06;;;;;;;;;;;15.20;99.90;;;;;;5033661;28;19979;-68
2022/10/19 04:18:32;;;;;;;;;;;15.30;99.90;;;;;;5033076;28;19909;-68
2022/10/19 04:20:59;;;;;;;;;;;15.30;99.90;;;;;;5033240;28;19909;-68
2022/10/19 04:23:28;;;;;;;;;;;15.30;99.90;;;;;;5033398;28;19920;-68
2022/10/19 04:26:03;;;;;;;;;;;15.30;99.90;;;;;;5042090;23;19929;-73
2022/10/19 04:28:29;;;;;;;;;;;15.40;99.90;;;;;;5033884;28;19905;-71
2022/10/19 04:30:54;;;;;;;;;;;15.40;99.90;;;;;;5016029;28;19912;-69
2022/10/19 04:33:20;;;;;;;;;;;15.30;99.90;;;;;;5033693;28;19991;-72
2022/10/19 04:35:45;;;;;;;;;;;15.40;99.90;;;;;;5032145;28;19909;-71
2022/10/19 04:38:11;;;;;;;;;;;15.40;99.90;;;;;;5032337;28;19913;-71
2022/10/19 04:40:36;;;;;;;;;;;15.40;99.90;;;;;;5033352;28;19905;-70
2022/10/19 04:43:02;;;;;;;;;;;15.40;99.90;;;;;;5033807;28;19905;-70
2022/10/19 04:45:28;;;;;;;;;;;15.40;99.90;;;;;;5038838;28;19928;-69
2022/10/19 04:47:55;;;;;;;;;;;15.30;99.90;;;;;;5035353;28;20346;-70
2022/10/19 04:50:24;;;;;;;;;;;15.30;99.90;;;;;;5036828;28;19912;-69
2022/10/19 04:52:49;;;;;;;;;;;15.30;99.90;;;;;;5017648;28;19912;-69
2022/10/19 04:55:15;;;;;;;;;;;15.30;99.90;;;;;;5035943;28;19909;-69
2022/10/19 04:57:40;;;;;;;;;;;15.30;99.90;;;;;;5019631;28;20259;-69
2022/10/19 05:00:06;;;;;;;;;;;15.30;99.90;;;;;;5037776;28;19905;-69
2022/10/19 05:02:32;;;;;;;;;;;15.30;99.90;;;;;;5028997;28;19971;-69
2022/10/19 05:04:57;;;;;;;;;;;15.30;99.90;;;;;;4999487;28;19905;-68
2022/10/19 05:07:25;;;;;;;;;;;15.30;99.90;;;;;;5016081;28;19906;-70
2022/10/19 05:09:51;;;;;;;;;;;15.30;99.90;;;;;;4999656;28;19906;-71
2022/10/19 05:12:16;;;;;;;;;;;15.20;99.90;;;;;;5000101;28;19959;-71
2022/10/19 05:14:42;;;;;;;;;;;15.20;99.90;;;;;;5017315;28;20006;-69
2022/10/19 05:17:07;;;;;;;;;;;15.30;99.90;;;;;;5000092;28;19909;-69
2022/10/19 05:19:33;;;;;;;;;;;15.30;99.90;;;;;;5018681;28;19973;-69
2022/10/19 05:21:58;;;;;;;;;;;15.30;99.90;;;;;;5018948;28;19912;-69
2022/10/19 05:24:24;;;;;;;;;;;15.30;99.90;;;;;;5021636;28;19909;-67
2022/10/19 05:26:49;;;;;;;;;;;15.30;99.90;;;;;;5037369;28;20383;-68
2022/10/19 05:29:14;;;;;;;;;;;15.30;99.90;;;;;;5018626;28;20231;-67
2022/10/19 05:31:40;;;;;;;;;;;15.20;99.90;;;;;;5036239;28;19948;-68
2022/10/19 05:34:05;;;;;;;;;;;15.20;99.90;;;;;;5036388;28;20320;-69
2022/10/19 05:36:35;;;;;;;;;;;15.20;99.90;;;;;;5018945;28;19955;-68
2022/10/19 05:39:10;;;;;;;;;;;15.20;99.90;;;;;;5018817;28;19906;-68
2022/10/19 05:41:36;;;;;;;;;;;15.20;99.90;;;;;;5036278;28;19956;-68
2022/10/19 05:44:02;;;;;;;;;;;15.30;99.90;;;;;;5035048;28;19948;-68
2022/10/19 05:46:28;;;;;;;;;;;15.30;99.90;;;;;;5036240;28;19959;-69
2022/10/19 05:48:55;;;;;;;;;;;15.30;99.90;;;;;;5036565;28;19905;-69
2022/10/19 05:51:21;;;;;;;;;;;15.30;99.90;;;;;;5035904;28;19972;-69
2022/10/19 05:53:47;;;;;;;;;;;15.30;99.90;;;;;;5036145;28;19912;-69
2022/10/19 05:56:14;;;;;;;;;;;15.20;99.90;;;;;;5034950;28;19905;-69
2022/10/19 05:58:39;;;;;;;;;;;15.30;99.90;;;;;;5018483;28;20015;-68
2022/10/19 06:01:05;;;;;;;;;;;15.30;99.90;;;;;;5034498;28;20192;-68
2022/10/19 06:03:31;;;;;;;;;;;15.30;99.90;;;;;;5035303;28;19905;-68
2022/10/19 06:05:56;;;;;;;;;;;15.40;99.90;;;;;;5035541;28;19943;-67
2022/10/19 06:08:22;;;;;;;;;;;15.40;99.90;;;;;;5035348;28;20405;-68
2022/10/19 06:10:48;;;;;;;;;;;15.30;99.90;;;;;;5022036;28;19905;-67
2022/10/19 06:13:14;;;;;;;;;;;15.20;99.90;;;;;;5015875;28;19905;-67
2022/10/19 06:15:40;;;;;;;;;;;15.30;99.90;;;;;;5014722;28;19912;-67
2022/10/19 06:18:06;;;;;;;;;;;15.30;99.90;;;;;;4997935;28;19913;-68
2022/10/19 06:20:39;;;;;;;;;;;15.30;99.90;;;;;;5015436;28;19906;-68
2022/10/19 06:23:05;;;;;;;;;;;15.30;99.90;;;;;;5014979;28;20366;-69
2022/10/19 06:25:31;;;;;;;;;;;15.30;99.90;;;;;;4997638;28;19913;-68
2022/10/19 06:27:56;;;;;;;;;;;15.30;99.90;;;;;;4998078;28;20004;-68
2022/10/19 06:30:22;;;;;;;;;;;15.30;99.90;;;;;;5015239;28;19956;-69
2022/10/19 06:32:47;;;;;;;;;;;15.30;99.90;;;;;;5013151;28;19905;-68
2022/10/19 06:35:14;;;;;;;;;;;15.30;99.90;;;;;;5015060;28;19906;-68
2022/10/19 06:37:40;;;;;;;;;;;15.30;99.90;;;;;;5014727;28;19909;-68
2022/10/19 06:40:06;;;;;;;;;;;15.30;99.90;;;;;;5015552;28;19917;-68
2022/10/19 06:42:31;;;;;;;;;;;15.30;99.90;;;;;;5012915;28;19905;-68
2022/10/19 06:44:57;;;;;;;;;;;15.30;99.90;;;;;;5013847;28;19905;-68
2022/10/19 06:47:29;;;;;;;;;;;15.30;99.90;;;;;;5014074;28;20431;-67
2022/10/19 06:49:55;;;;;;;;;;;15.40;99.90;;;;;;5015383;28;19991;-68
2022/10/19 06:52:21;;;;;;;;;;;15.40;99.90;;;;;;5015621;28;20428;-68
2022/10/19 06:54:47;;;;;;;;;;;15.30;99.90;;;;;;5013679;28;19956;-68
2022/10/19 06:57:12;;;;;;;;;;;15.40;99.90;;;;;;5013928;28;19913;-69
2022/10/19 06:59:38;;;;;;;;;;;15.50;99.90;;;;;;5014297;28;19956;-68
2022/10/19 07:02:03;;;;;;;;;;;15.50;99.90;;;;;;5016096;28;19905;-69
2022/10/19 07:04:29;;;;;;;;;;;15.60;99.90;;;;;;5015345;28;20357;-68
2022/10/19 07:06:54;;;;;;;;;;;15.60;99.90;;;;;;5012502;28;19905;-68
2022/10/19 07:09:21;;;;;;;;;;;15.70;99.90;;;;;;5014627;28;19913;-68
2022/10/19 07:11:47;;;;;;;;;;;15.70;99.90;;;;;;5013868;28;19951;-67
2022/10/19 07:14:12;;;;;;;;;;;15.70;99.90;;;;;;5014996;28;19905;-67
2022/10/19 07:16:37;;;;;;;;;;;15.70;99.90;;;;;;5013789;28;19996;-68
2022/10/19 07:19:03;;;;;;;;;;;15.70;99.90;;;;;;5014434;28;20008;-67
2022/10/19 07:21:28;;;;;;;;;;;15.80;99.90;;;;;;5015014;28;20354;-68
2022/10/19 07:23:54;;;;;;;;;;;15.80;99.90;;;;;;5014242;28;19905;-68
2022/10/19 07:26:25;;;;;;;;;;;15.90;99.90;;;;;;5014995;28;19924;-67
2022/10/19 07:28:51;;;;;;;;;;;15.90;99.90;;;;;;5013884;28;19958;-68
2022/10/19 07:31:19;;;;;;;;;;;15.90;99.90;;;;;;5015254;28;19975;-68
2022/10/19 07:33:45;;;;;;;;;;;15.90;99.90;;;;;;4996661;28;19905;-67
2022/10/19 07:36:12;;;;;;;;;;;15.90;99.90;;;;;;4994907;28;19906;-68
2022/10/19 07:38:38;;;;;;;;;;;15.90;99.90;;;;;;4994885;28;19913;-68
2022/10/19 07:41:06;;;;;;;;;;;15.80;99.90;;;;;;5005842;28;19921;-68
2022/10/19 07:43:32;;;;;;;;;;;15.90;99.90;;;;;;5014699;28;19997;-68
2022/10/19 07:45:58;;;;;;;;;;;15.80;99.90;;;;;;5014947;28;19937;-68
2022/10/19 07:48:24;;;;;;;;;;;15.90;99.90;;;;;;5013651;28;19909;-68
2022/10/19 07:50:49;;;;;;;;;;;16.00;99.90;;;;;;5014267;28;19906;-67
2022/10/19 07:53:15;;;;;;;;;;;16.00;99.90;;;;;;5014084;28;19913;-68
2022/10/19 07:55:40;;;;;;;;;;;16.00;99.90;;;;;;5012351;28;19909;-68
2022/10/19 07:58:06;;;;;;;;;;;16.00;99.90;;;;;;4996217;28;19914;-68
2022/10/19 08:00:31;;;;;;;;;;;16.00;99.90;;;;;;4996169;28;19912;-69
2022/10/19 08:02:57;;;;;;;;;;;16.10;99.90;;;;;;5012357;28;19928;-68
2022/10/19 08:05:22;;;;;;;;;;;16.10;99.90;;;;;;5014526;28;20408;-68
2022/10/19 08:07:48;;;;;;;;;;;16.10;99.90;;;;;;5014021;28;19988;-68
2022/10/19 08:10:13;;;;;;;;;;;16.10;99.90;;;;;;5013779;28;20366;-68
2022/10/19 08:12:39;;;;;;;;;;;16.10;99.90;;;;;;5012390;28;19928;-65
2022/10/19 08:15:05;;;;;;;;;;;16.10;99.90;;;;;;5013688;28;19963;-66
2022/10/19 08:17:34;;;;;;;;;;;16.10;99.90;;;;;;5013615;28;20005;-69
2022/10/19 08:19:59;;;;;;;;;;;16.30;99.90;;;;;;5013394;28;19912;-69
2022/10/19 08:22:25;;;;;;;;;;;16.40;99.90;;;;;;5013807;28;20254;-67
2022/10/19 08:24:50;;;;;;;;;;;16.60;99.90;;;;;;5013670;28;20290;-67
2022/10/19 08:27:15;;;;;;;;;;;16.60;99.90;;;;;;5015816;28;20297;-66
2022/10/19 08:29:41;;;;;;;;;;;16.60;99.90;;;;;;5017826;28;20327;-66
2022/10/19 08:32:06;;;;;;;;;;;16.60;99.90;;;;;;5017588;28;19906;-66
2022/10/19 08:34:32;;;;;;;;;;;16.70;99.90;;;;;;5017354;28;19905;-66
2022/10/19 08:36:57;;;;;;;;;;;16.80;99.90;;;;;;5017678;28;19916;-67
2022/10/19 08:39:23;;;;;;;;;;;16.80;99.90;;;;;;5017473;28;19913;-66
2022/10/19 08:42:01;;;;;;;;;;;16.80;99.90;;;;;;5017557;28;19913;-67
2022/10/19 08:44:44;;;;;;;;;;;16.90;99.90;;;;;;5017075;28;20281;-66
2022/10/19 08:47:09;;;;;;;;;;;17.00;99.90;;;;;;5017223;28;19906;-67
2022/10/19 08:49:34;;;;;;;;;;;17.10;99.90;;;;;;5017506;28;19952;-67
2022/10/19 08:52:03;;;;;;;;;;;17.10;99.90;;;;;;5017273;28;19906;-66
2022/10/19 08:54:51;;;;;;;;;;;17.20;99.90;;;;;;5017120;28;19952;-66
2022/10/19 08:57:20;;;;;;;;;;;17.00;99.90;;;;;;4993705;28;19909;-67
2022/10/19 08:59:52;;;;;;;;;;;17.00;99.90;;;;;;5016935;28;19909;-67
2022/10/19 09:02:21;;;;;;;;;;;17.00;99.90;;;;;;5015844;28;19910;-67
2022/10/19 09:04:49;;;;;;;;;;;17.00;99.90;;;;;;5016680;28;20327;-66
2022/10/19 09:07:20;;;;;;;;;;;16.80;99.90;;;;;;5016975;28;19905;-66
2022/10/19 09:09:52;;;;;;;;;;;16.60;99.90;;;;;;5017054;28;20273;-66
2022/10/19 09:12:22;;;;;;;;;;;16.60;99.90;;;;;;5017140;28;19905;-66
2022/10/19 09:14:57;;;;;;;;;;;16.60;99.90;;;;;;5017473;28;20358;-66
2022/10/19 09:17:24;;;;;;;;;;;16.50;99.90;;;;;;5015857;28;19916;-66
2022/10/19 09:19:50;;;;;;;;;;;16.50;99.90;;;;;;5016772;28;19906;-66
2022/10/19 09:22:18;;;;;;;;;;;16.50;99.90;;;;;;5017077;28;19928;-67
2022/10/19 09:24:54;;;;;;;;;;;16.50;99.90;;;;;;5016683;28;19909;-67
2022/10/19 09:27:21;;;;;;;;;;;16.50;99.90;;;;;;4998309;28;19905;-71
2022/10/19 09:29:49;;;;;;;;;;;16.60;99.90;;;;;;4999292;28;19909;-66
2022/10/19 09:32:18;;;;;;;;;;;16.60;99.90;;;;;;5016813;28;19905;-66
2022/10/19 09:34:48;;;;;;;;;;;16.70;99.90;;;;;;5016864;28;20022;-67
2022/10/19 09:37:13;;;;;;;;;;;16.70;99.90;;;;;;5016933;28;20003;-66
2022/10/19 09:39:39;;;;;;;;;;;16.80;99.90;;;;;;5016734;28;20362;-67
2022/10/19 09:42:12;;;;;;;;;;;16.80;99.90;;;;;;5017654;28;20420;-67
2022/10/19 09:44:37;;;;;;;;;;;16.80;99.90;;;;;;5015560;28;19921;-66
2022/10/19 09:47:19;;;;;;;;;;;16.80;99.90;;;;;;5016861;28;19909;-66
2022/10/19 09:49:46;;;;;;;;;;;16.80;99.90;;;;;;5016694;28;19912;-67
2022/10/19 09:52:31;;;;;;;;;;;16.80;99.90;;;;;;5016703;28;20309;-66
2022/10/19 09:55:15;;;;;;;;;;;16.70;99.90;;;;;;5016561;28;20321;-66
2022/10/19 09:57:41;;;;;;;;;;;16.70;99.90;;;;;;4998016;28;19925;-66
2022/10/19 10:00:15;;;;;;;;;;;16.70;99.90;;;;;;5016031;28;20002;-64
2022/10/19 10:02:47;;;;;;;;;;;16.70;99.90;;;;;;5016877;28;19905;-67
2022/10/19 10:05:13;;;;;;;;;;;16.70;99.90;;;;;;5016479;28;19924;-67
2022/10/19 10:07:39;;;;;;;;;;;16.70;99.90;;;;;;5016275;28;19906;-67
2022/10/19 10:10:09;;;;;;;;;;;16.80;99.90;;;;;;5016283;28;20004;-66
2022/10/19 10:12:34;;;;;;;;;;;17.00;99.90;;;;;;5015836;28;19905;-67
2022/10/19 10:15:01;;;;;;;;;;;17.30;99.90;;;;;;5015605;28;20235;-67
2022/10/19 10:17:29;;;;;;;;;;;17.40;99.90;;;;;;5016068;28;19913;-66
2022/10/19 10:19:57;;;;;;;;;;;17.40;99.90;;;;;;5016533;28;19913;-69
2022/10/19 10:22:27;;;;;;;;;;;17.40;99.90;;;;;;4998636;28;19905;-67
2022/10/19 10:24:53;;;;;;;;;;;17.40;99.90;;;;;;5011931;23;19905;-59
2022/10/19 10:27:33;;;;;;;;;;;17.40;99.90;;;;;;5006543;28;19918;-59
2022/10/19 10:30:03;;;;;;;;;;;17.90;99.90;;;;;;4995655;28;19906;-59
2022/10/19 10:32:29;;;;;;;;;;;17.90;99.90;;;;;;4996146;28;20309;-58
2022/10/19 10:34:57;;;;;;;;;;;18.30;99.90;;;;;;4995413;28;19995;-60
2022/10/19 10:37:27;;;;;;;;;;;19.00;99.90;;;;;;4995311;28;20031;-59
2022/10/19 10:39:53;;;;;;;;;;;19.40;99.90;;;;;;4995375;28;19912;-61
2022/10/19 10:42:24;;;;;;;;;;;19.90;99.90;;;;;;4994886;28;19905;-59
2022/10/19 10:44:50;;;;;;;;;;;19.90;99.90;;;;;;4995108;28;20381;-58
2022/10/19 10:47:16;;;;;;;;;;;19.70;99.90;;;;;;5010418;28;19906;-60
2022/10/19 10:49:42;;;;;;;;;;;19.70;99.90;;;;;;4994750;28;19905;-61
2022/10/19 10:52:13;;;;;;;;;;;19.10;99.90;;;;;;4995088;28;19905;-60
2022/10/19 10:54:38;;;;;;;;;;;18.80;99.90;;;;;;4994913;28;19940;-61
2022/10/19 10:57:14;;;;;;;;;;;18.80;99.90;;;;;;5001094;28;19953;-60
2022/10/19 10:59:49;;;;;;;;;;;18.70;99.90;;;;;;4993826;28;19906;-60
2022/10/19 11:02:23;;;;;;;;;;;18.50;99.90;;;;;;4995214;28;19953;-62
2022/10/19 11:04:50;;;;;;;;;;;18.60;99.90;;;;;;4994759;28;19905;-60
2022/10/19 11:07:20;;;;;;;;;;;18.80;99.90;;;;;;4995118;28;19912;-60
2022/10/19 11:09:50;;;;;;;;;;;18.90;99.90;;;;;;4995280;28;20286;-63
2022/10/19 11:12:17;;;;;;;;;;;19.20;99.90;;;;;;4994457;28;19913;-60
2022/10/19 11:14:59;;;;;;;;;;;19.50;99.90;;;;;;4994509;28;19906;-61
2022/10/19 11:17:29;;;;;;;;;;;19.60;99.90;;;;;;4995244;28;20349;-59
2022/10/19 11:19:55;;;;;;;;;;;19.50;99.90;;;;;;4995083;28;19905;-69
2022/10/19 11:22:30;;;;;;;;;;;19.30;99.90;;;;;;4994598;28;20301;-66
2022/10/19 11:25:11;;;;;;;;;;;19.20;99.90;;;;;;4993284;28;19913;-66
2022/10/19 11:27:40;;;;;;;;;;;19.20;99.90;;;;;;5022920;28;20389;-64
2022/10/19 11:30:21;;;;;;;;;;;19.10;99.90;;;;;;5014617;28;19912;-70
2022/10/19 11:33:04;;;;;;;;;;;19.00;99.90;;;;;;5014950;28;19913;-66
2022/10/19 11:35:52;;;;;;;;;;;19.10;99.90;;;;;;5014931;28;19912;-61
2022/10/19 11:38:34;;;;;;;;;;;19.10;99.90;;;;;;5013479;28;19909;-61
2022/10/19 11:41:25;;;;;;;;;;;19.10;99.90;;;;;;5014884;28;19905;-61
2022/10/19 11:44:14;;;;;;;;;;;19.20;99.90;;;;;;5013291;28;19913;-59
2022/10/19 11:46:39;;;;;;;;;;;19.20;99.90;;;;;;5014506;28;19988;-60
2022/10/19 11:49:24;;;;;;;;;;;19.00;99.90;;;;;;5014060;28;20063;-60
2022/10/19 11:51:57;;;;;;;;;;;18.90;99.90;;;;;;5014020;28;19971;-61
2022/10/19 11:54:28;;;;;;;;;;;18.70;99.90;;;;;;5013591;28;19912;-62
2022/10/19 11:57:19;;;;;;;;;;;18.70;99.90;;;;;;5003324;28;20388;-60
2022/10/19 12:00:00;;;;;;;;;;;18.70;99.90;;;;;;4993087;28;19933;-61
2022/10/19 12:02:53;;;;;;;;;;;18.70;99.90;;;;;;4997521;28;19906;-65
2022/10/19 12:05:26;;;;;;;;;;;18.90;99.90;;;;;;5001481;28;19910;-64
2022/10/19 12:07:52;;;;;;;;;;;19.20;99.90;;;;;;4999924;28;19937;-63
2022/10/19 12:10:20;;;;;;;;;;;19.10;99.90;;;;;;4999406;28;20373;-62
2022/10/19 12:12:50;;;;;;;;;;;19.00;99.90;;;;;;5001137;28;20274;-66
2022/10/19 12:15:22;;;;;;;;;;;19.10;99.90;;;;;;5004032;28;19906;-67
2022/10/19 12:17:49;;;;;;;;;;;19.10;99.90;;;;;;5001934;28;20013;-66
2022/10/19 12:20:20;;;;;;;;;;;19.00;99.90;;;;;;4999395;28;20374;-66
2022/10/19 12:22:47;;;;;;;;;;;19.00;99.90;;;;;;5000936;28;19905;-65
2022/10/19 12:25:13;;;;;;;;;;;19.00;99.90;;;;;;5000516;28;19956;-71
2022/10/19 12:27:40;;;;;;;;;;;19.10;99.90;;;;;;5000139;28;20000;-68
2022/10/19 12:30:08;;;;;;;;;;;19.20;99.90;;;;;;5000529;28;19912;-67
2022/10/19 12:32:40;;;;;;;;;;;19.30;99.90;;;;;;5000956;28;19940;-65
2022/10/19 12:35:25;;;;;;;;;;;19.30;99.90;;;;;;5000708;28;19906;-66
2022/10/19 12:37:56;;;;;;;;;;;19.30;99.90;;;;;;5000289;28;19964;-66
2022/10/19 12:40:27;;;;;;;;;;;19.10;99.90;;;;;;5000400;28;20433;-65
2022/10/19 12:43:00;;;;;;;;;;;18.90;99.90;;;;;;5000301;28;19906;-60
2022/10/19 12:45:29;;;;;;;;;;;18.80;99.90;;;;;;5000442;28;19910;-63
2022/10/19 12:48:07;;;;;;;;;;;18.60;99.90;;;;;;5000148;28;19912;-63
2022/10/19 12:50:47;;;;;;;;;;;18.40;99.90;;;;;;5000315;28;19953;-65
2022/10/19 12:53:39;;;;;;;;;;;18.50;99.90;;;;;;5000577;28;19906;-64
2022/10/19 12:56:16;;;;;;;;;;;18.60;99.90;;;;;;4997708;28;19992;-64
2022/10/19 12:58:42;;;;;;;;;;;18.70;99.90;;;;;;4998975;28;19913;-63
2022/10/19 13:01:08;;;;;;;;;;;18.90;99.90;;;;;;5000238;28;19984;-64
2022/10/19 13:03:36;;;;;;;;;;;19.00;99.90;;;;;;5000448;28;20003;-63
2022/10/19 13:06:07;;;;;;;;;;;18.80;99.90;;;;;;5000189;28;19913;-63
2022/10/19 13:08:47;;;;;;;;;;;18.80;99.90;;;;;;5000509;28;19909;-64
2022/10/19 13:11:14;;;;;;;;;;;18.90;99.90;;;;;;5000025;28;19906;-64
2022/10/19 13:13:54;;;;;;;;;;;18.90;99.90;;;;;;4997665;28;20001;-63
2022/10/19 13:16:28;;;;;;;;;;;18.90;99.90;;;;;;4997368;28;20291;-65
2022/10/19 13:19:12;;;;;;;;;;;18.90;99.90;;;;;;4997110;28;19917;-65
2022/10/19 13:21:50;;;;;;;;;;;19.10;99.90;;;;;;4995750;28;19952;-61
2022/10/19 13:24:24;;;;;;;;;;;19.00;99.90;;;;;;4995355;28;20326;-59
2022/10/19 13:27:02;;;;;;;;;;;19.00;99.90;;;;;;4996785;28;20354;-63
2022/10/19 13:29:38;;;;;;;;;;;19.10;99.90;;;;;;4999467;28;19912;-61
2022/10/19 13:32:22;;;;;;;;;;;19.00;99.90;;;;;;4997492;28;19913;-61
2022/10/19 13:34:47;;;;;;;;;;;19.00;99.90;;;;;;5012809;28;19933;-60
2022/10/19 13:37:20;;;;;;;;;;;19.00;99.90;;;;;;5011978;28;19909;-61
2022/10/19 13:39:46;;;;;;;;;;;19.10;99.90;;;;;;4997077;28;19910;-59
2022/10/19 13:42:25;;;;;;;;;;;19.20;99.90;;;;;;5011483;28;19909;-55
2022/10/19 13:44:52;;;;;;;;;;;19.10;99.90;;;;;;5011622;28;19916;-58
2022/10/19 13:47:42;;;;;;;;;;;19.10;99.90;;;;;;4996710;28;20000;-60
2022/10/19 13:50:13;;;;;;;;;;;19.00;99.90;;;;;;4996810;28;19906;-59
2022/10/19 13:52:39;;;;;;;;;;;19.10;99.90;;;;;;5011607;28;19906;-59
2022/10/19 13:55:13;;;;;;;;;;;19.10;99.90;;;;;;4996544;28;19905;-67
2022/10/19 13:57:44;;;;;;;;;;;19.20;99.90;;;;;;4996549;28;19956;-69
2022/10/19 14:00:18;;;;;;;;;;;19.10;99.90;;;;;;4996433;28;19937;-67
2022/10/19 14:03:02;;;;;;;;;;;19.20;99.90;;;;;;4995076;28;19949;-67
2022/10/19 14:05:40;;;;;;;;;;;19.20;99.90;;;;;;4996212;28;19906;-70
2022/10/19 14:08:24;;;;;;;;;;;19.20;99.90;;;;;;4995250;28;19912;-70
2022/10/19 14:10:57;;;;;;;;;;;19.30;99.90;;;;;;4994987;28;19912;-67